sensor_id;sensor_type;location;lat;lon;timestamp;pressure;altitude;pressure_sealevel;temperature;humidity
39341;BME280;25059;52.132;21.062;2023-05-22T00:01:18;100838.75;;;21.04;45.49
39341;BME280;25059;52.132;21.062;2023-05-22T00:04:03;100834.31;;;20.68;45.57
39341;BME280;25059;52.132;21.062;2023-05-22T00:06:48;100836.97;;;20.92;45.08
39341;BME280;25059;52.132;21.062;2023-05-22T00:09:32;100841.31;;;20.82;45.13
39341;BME280;25059;52.132;21.062;2023-05-22T00:12:17;100822.19;;;20.99;45.17
39341;BME280;25059;52.132;21.062;2023-05-22T00:15:02;100839.75;;;21.14;45.34
39341;BME280;25059;52.132;21.062;2023-05-22T00:17:47;100834.53;;;21.13;44.91
39341;BME280;25059;52.132;21.062;2023-05-22T00:20:31;100830.16;;;21.12;44.74
39341;BME280;25059;52.132;21.062;2023-05-22T00:23:21;100832.78;;;20.77;45.54
39341;BME280;25059;52.132;21.062;2023-05-22T00:26:06;100814.50;;;20.71;45.74
39341;BME280;25059;52.132;21.062;2023-05-22T00:28:53;100818.50;;;20.65;45.76
39341;BME280;25059;52.132;21.062;2023-05-22T00:31:37;100831.69;;;20.55;45.78
39341;BME280;25059;52.132;21.062;2023-05-22T00:34:22;100820.13;;;20.55;45.52
39341;BME280;25059;52.132;21.062;2023-05-22T00:37:06;100825.22;;;20.94;45.64
39341;BME280;25059;52.132;21.062;2023-05-22T00:39:51;100820.44;;;20.63;46.11
39341;BME280;25059;52.132;21.062;2023-05-22T00:42:35;100826.84;;;20.84;45.49
39341;BME280;25059;52.132;21.062;2023-05-22T00:45:20;100809.41;;;20.68;45.52
39341;BME280;25059;52.132;21.062;2023-05-22T00:48:06;100827.38;;;20.66;45.82
39341;BME280;25059;52.132;21.062;2023-05-22T00:50:53;100826.50;;;20.65;46.58
39341;BME280;25059;52.132;21.062;2023-05-22T00:53:38;100821.31;;;20.38;46.77
39341;BME280;25059;52.132;21.062;2023-05-22T00:56:23;100808.19;;;20.35;46.29
39341;BME280;25059;52.132;21.062;2023-05-22T00:59:08;100805.28;;;20.51;46.36
39341;BME280;25059;52.132;21.062;2023-05-22T01:01:53;100811.41;;;20.40;47.09
39341;BME280;25059;52.132;21.062;2023-05-22T01:04:39;100816.44;;;20.32;47.33
39341;BME280;25059;52.132;21.062;2023-05-22T01:07:24;100822.88;;;20.17;47.73
39341;BME280;25059;52.132;21.062;2023-05-22T01:10:08;100816.28;;;19.97;48.00
39341;BME280;25059;52.132;21.062;2023-05-22T01:13:02;100823.84;;;20.03;48.56
39341;BME280;25059;52.132;21.062;2023-05-22T01:16:11;100822.16;;;19.89;49.19
39341;BME280;25059;52.132;21.062;2023-05-22T01:19:09;100830.25;;;20.00;48.70
39341;BME280;25059;52.132;21.062;2023-05-22T01:22:11;100818.63;;;19.89;49.80
39341;BME280;25059;52.132;21.062;2023-05-22T01:25:31;100831.34;;;19.85;49.99
39341;BME280;25059;52.132;21.062;2023-05-22T01:31:45;100817.97;;;19.98;49.86
39341;BME280;25059;52.132;21.062;2023-05-22T01:34:33;100821.94;;;19.80;50.44
39341;BME280;25059;52.132;21.062;2023-05-22T01:37:20;100827.91;;;19.58;51.07
39341;BME280;25059;52.132;21.062;2023-05-22T01:40:07;100829.47;;;19.48;51.51
39341;BME280;25059;52.132;21.062;2023-05-22T01:42:52;100831.44;;;19.71;50.95
39341;BME280;25059;52.132;21.062;2023-05-22T01:45:37;100824.94;;;19.88;50.81
39341;BME280;25059;52.132;21.062;2023-05-22T01:48:22;100803.38;;;19.78;49.94
39341;BME280;25059;52.132;21.062;2023-05-22T01:51:14;100826.09;;;19.96;50.12
39341;BME280;25059;52.132;21.062;2023-05-22T01:54:15;100826.53;;;19.90;50.18
39341;BME280;25059;52.132;21.062;2023-05-22T01:59:58;100824.59;;;19.80;50.27
39341;BME280;25059;52.132;21.062;2023-05-22T02:02:55;100836.34;;;19.64;50.33
39341;BME280;25059;52.132;21.062;2023-05-22T02:05:42;100826.22;;;19.70;50.09
39341;BME280;25059;52.132;21.062;2023-05-22T02:08:27;100831.84;;;19.65;50.19
39341;BME280;25059;52.132;21.062;2023-05-22T02:11:14;100820.97;;;19.93;49.39
39341;BME280;25059;52.132;21.062;2023-05-22T02:13:59;100824.81;;;19.77;49.73
39341;BME280;25059;52.132;21.062;2023-05-22T02:16:45;100825.56;;;19.53;49.76
39341;BME280;25059;52.132;21.062;2023-05-22T02:19:33;100828.34;;;19.64;49.87
39341;BME280;25059;52.132;21.062;2023-05-22T02:22:18;100834.34;;;19.41;50.24
39341;BME280;25059;52.132;21.062;2023-05-22T02:25:03;100820.81;;;19.44;50.53
39341;BME280;25059;52.132;21.062;2023-05-22T02:27:52;100816.72;;;19.26;51.51
39341;BME280;25059;52.132;21.062;2023-05-22T02:30:37;100825.09;;;19.47;51.11
39341;BME280;25059;52.132;21.062;2023-05-22T02:33:22;100813.22;;;19.25;51.86
39341;BME280;25059;52.132;21.062;2023-05-22T02:36:06;100821.38;;;19.10;52.36
39341;BME280;25059;52.132;21.062;2023-05-22T02:38:57;100822.91;;;19.26;51.70
39341;BME280;25059;52.132;21.062;2023-05-22T02:41:41;100823.59;;;19.43;51.14
39341;BME280;25059;52.132;21.062;2023-05-22T02:44:26;100820.41;;;19.50;50.94
39341;BME280;25059;52.132;21.062;2023-05-22T02:47:11;100816.50;;;19.68;50.86
39341;BME280;25059;52.132;21.062;2023-05-22T02:49:55;100812.97;;;19.68;51.30
39341;BME280;25059;52.132;21.062;2023-05-22T02:52:41;100815.75;;;19.79;50.96
39341;BME280;25059;52.132;21.062;2023-05-22T02:55:25;100805.41;;;19.62;51.03
39341;BME280;25059;52.132;21.062;2023-05-22T02:58:10;100808.06;;;19.75;51.35
39341;BME280;25059;52.132;21.062;2023-05-22T03:00:55;100800.16;;;19.73;51.03
39341;BME280;25059;52.132;21.062;2023-05-22T03:03:39;100808.59;;;19.80;51.34
39341;BME280;25059;52.132;21.062;2023-05-22T03:06:26;100800.16;;;19.86;51.01
39341;BME280;25059;52.132;21.062;2023-05-22T03:09:11;100801.22;;;19.96;50.66
39341;BME280;25059;52.132;21.062;2023-05-22T03:11:56;100796.44;;;19.76;51.32
39341;BME280;25059;52.132;21.062;2023-05-22T03:14:41;100792.03;;;20.00;50.87
39341;BME280;25059;52.132;21.062;2023-05-22T03:17:25;100797.16;;;19.90;50.87
39341;BME280;25059;52.132;21.062;2023-05-22T03:20:11;100784.31;;;20.08;50.30
39341;BME280;25059;52.132;21.062;2023-05-22T03:23:00;100789.53;;;20.22;49.94
39341;BME280;25059;52.132;21.062;2023-05-22T03:25:44;100799.03;;;20.39;49.95
39341;BME280;25059;52.132;21.062;2023-05-22T03:28:29;100788.22;;;20.41;49.87
39341;BME280;25059;52.132;21.062;2023-05-22T03:31:14;100796.53;;;20.49;49.62
39341;BME280;25059;52.132;21.062;2023-05-22T03:33:59;100793.06;;;20.59;49.51
39341;BME280;25059;52.132;21.062;2023-05-22T03:36:43;100789.72;;;20.69;49.14
39341;BME280;25059;52.132;21.062;2023-05-22T03:39:29;100791.88;;;20.87;48.56
39341;BME280;25059;52.132;21.062;2023-05-22T03:42:13;100792.97;;;20.85;48.13
39341;BME280;25059;52.132;21.062;2023-05-22T03:44:59;100795.97;;;21.04;47.83
39341;BME280;25059;52.132;21.062;2023-05-22T03:47:44;100790.16;;;21.10;47.59
39341;BME280;25059;52.132;21.062;2023-05-22T03:50:28;100796.50;;;21.20;47.40
39341;BME280;25059;52.132;21.062;2023-05-22T03:53:13;100798.28;;;21.33;47.15
39341;BME280;25059;52.132;21.062;2023-05-22T03:55:58;100793.44;;;21.49;46.72
39341;BME280;25059;52.132;21.062;2023-05-22T03:58:42;100801.88;;;21.67;46.39
39341;BME280;25059;52.132;21.062;2023-05-22T04:01:27;100789.34;;;21.78;45.52
39341;BME280;25059;52.132;21.062;2023-05-22T04:04:12;100794.34;;;21.94;45.29
39341;BME280;25059;52.132;21.062;2023-05-22T04:06:58;100794.25;;;22.18;44.97
39341;BME280;25059;52.132;21.062;2023-05-22T04:09:42;100786.72;;;22.12;44.94
39341;BME280;25059;52.132;21.062;2023-05-22T04:12:27;100787.78;;;22.20;44.34
39341;BME280;25059;52.132;21.062;2023-05-22T04:15:11;100786.94;;;22.31;44.12
39341;BME280;25059;52.132;21.062;2023-05-22T04:17:56;100789.31;;;22.56;43.71
39341;BME280;25059;52.132;21.062;2023-05-22T04:20:41;100795.13;;;22.73;43.55
39341;BME280;25059;52.132;21.062;2023-05-22T04:23:26;100791.50;;;22.51;43.71
39341;BME280;25059;52.132;21.062;2023-05-22T04:26:10;100790.72;;;22.72;43.33
39341;BME280;25059;52.132;21.062;2023-05-22T04:28:55;100798.78;;;22.72;43.08
39341;BME280;25059;52.132;21.062;2023-05-22T04:31:39;100779.88;;;22.73;42.90
39341;BME280;25059;52.132;21.062;2023-05-22T04:34:25;100781.28;;;23.00;42.37
39341;BME280;25059;52.132;21.062;2023-05-22T04:37:10;100787.53;;;22.89;42.04
39341;BME280;25059;52.132;21.062;2023-05-22T04:39:55;100782.06;;;23.11;41.45
39341;BME280;25059;52.132;21.062;2023-05-22T04:42:41;100773.97;;;23.23;41.17
39341;BME280;25059;52.132;21.062;2023-05-22T04:45:26;100763.16;;;23.13;41.42
39341;BME280;25059;52.132;21.062;2023-05-22T04:48:12;100768.38;;;23.35;40.70
39341;BME280;25059;52.132;21.062;2023-05-22T04:50:57;100760.88;;;23.29;40.80
39341;BME280;25059;52.132;21.062;2023-05-22T04:53:41;100767.78;;;23.52;40.45
39341;BME280;25059;52.132;21.062;2023-05-22T04:56:25;100766.31;;;23.90;39.98
39341;BME280;25059;52.132;21.062;2023-05-22T04:59:11;100769.72;;;23.92;40.03
39341;BME280;25059;52.132;21.062;2023-05-22T05:01:59;100771.38;;;24.24;39.07
39341;BME280;25059;52.132;21.062;2023-05-22T05:04:43;100779.53;;;24.43;39.08
39341;BME280;25059;52.132;21.062;2023-05-22T05:07:28;100773.75;;;24.67;38.75
39341;BME280;25059;52.132;21.062;2023-05-22T05:10:12;100779.72;;;24.90;38.35
39341;BME280;25059;52.132;21.062;2023-05-22T05:12:57;100775.91;;;25.11;37.96
39341;BME280;25059;52.132;21.062;2023-05-22T05:15:43;100783.22;;;25.48;37.56
39341;BME280;25059;52.132;21.062;2023-05-22T05:18:27;100779.34;;;25.80;37.29
39341;BME280;25059;52.132;21.062;2023-05-22T05:21:12;100786.31;;;26.10;36.84
39341;BME280;25059;52.132;21.062;2023-05-22T05:23:57;100780.97;;;26.27;36.41
39341;BME280;25059;52.132;21.062;2023-05-22T05:26:42;100781.72;;;26.47;35.94
39341;BME280;25059;52.132;21.062;2023-05-22T05:29:27;100781.69;;;26.57;35.64
39341;BME280;25059;52.132;21.062;2023-05-22T05:32:11;100782.22;;;26.96;35.61
39341;BME280;25059;52.132;21.062;2023-05-22T05:34:57;100781.88;;;27.09;34.84
39341;BME280;25059;52.132;21.062;2023-05-22T05:37:41;100784.72;;;27.51;34.63
39341;BME280;25059;52.132;21.062;2023-05-22T05:40:26;100791.97;;;27.50;34.18
39341;BME280;25059;52.132;21.062;2023-05-22T05:43:11;100776.66;;;27.33;34.46
39341;BME280;25059;52.132;21.062;2023-05-22T05:45:58;100772.91;;;26.73;35.49
39341;BME280;25059;52.132;21.062;2023-05-22T05:48:44;100778.84;;;26.94;35.28
39341;BME280;25059;52.132;21.062;2023-05-22T05:51:30;100783.44;;;27.37;35.08
39341;BME280;25059;52.132;21.062;2023-05-22T05:54:15;100776.84;;;27.14;35.08
39341;BME280;25059;52.132;21.062;2023-05-22T05:57:00;100776.22;;;27.20;34.87
39341;BME280;25059;52.132;21.062;2023-05-22T05:59:44;100775.97;;;27.57;34.53
39341;BME280;25059;52.132;21.062;2023-05-22T06:02:29;100767.25;;;27.89;33.81
39341;BME280;25059;52.132;21.062;2023-05-22T06:05:14;100778.63;;;28.01;33.80
39341;BME280;25059;52.132;21.062;2023-05-22T06:08:01;100767.69;;;27.76;34.16
39341;BME280;25059;52.132;21.062;2023-05-22T06:10:45;100758.31;;;27.96;33.88
39341;BME280;25059;52.132;21.062;2023-05-22T06:13:30;100779.94;;;27.96;34.27
39341;BME280;25059;52.132;21.062;2023-05-22T06:16:15;100772.88;;;28.04;34.07
39341;BME280;25059;52.132;21.062;2023-05-22T06:18:59;100762.38;;;27.92;33.93
39341;BME280;25059;52.132;21.062;2023-05-22T06:21:44;100767.59;;;28.28;33.23
39341;BME280;25059;52.132;21.062;2023-05-22T06:24:32;100762.09;;;28.12;32.42
39341;BME280;25059;52.132;21.062;2023-05-22T06:27:16;100758.00;;;27.99;32.16
39341;BME280;25059;52.132;21.062;2023-05-22T06:30:01;100752.88;;;27.88;32.07
39341;BME280;25059;52.132;21.062;2023-05-22T06:32:45;100752.75;;;27.98;32.08
39341;BME280;25059;52.132;21.062;2023-05-22T06:35:30;100757.72;;;28.11;31.97
39341;BME280;25059;52.132;21.062;2023-05-22T06:38:16;100761.06;;;28.05;32.29
39341;BME280;25059;52.132;21.062;2023-05-22T06:41:00;100757.63;;;27.94;33.58
39341;BME280;25059;52.132;21.062;2023-05-22T06:43:46;100762.56;;;28.41;33.31
39341;BME280;25059;52.132;21.062;2023-05-22T06:46:30;100764.81;;;28.62;33.35
39341;BME280;25059;52.132;21.062;2023-05-22T06:49:15;100764.84;;;28.70;32.88
39341;BME280;25059;52.132;21.062;2023-05-22T06:52:00;100761.72;;;28.41;33.35
39341;BME280;25059;52.132;21.062;2023-05-22T06:54:44;100768.78;;;28.92;33.07
39341;BME280;25059;52.132;21.062;2023-05-22T06:57:33;100761.50;;;28.84;33.31
39341;BME280;25059;52.132;21.062;2023-05-22T07:00:17;100755.91;;;28.94;33.56
39341;BME280;25059;52.132;21.062;2023-05-22T07:03:03;100767.94;;;29.08;33.08
39341;BME280;25059;52.132;21.062;2023-05-22T07:05:51;100763.34;;;29.24;32.81
39341;BME280;25059;52.132;21.062;2023-05-22T07:08:39;100765.72;;;29.27;32.50
39341;BME280;25059;52.132;21.062;2023-05-22T07:11:24;100749.66;;;29.18;31.62
39341;BME280;25059;52.132;21.062;2023-05-22T07:14:10;100757.56;;;29.60;31.74
39341;BME280;25059;52.132;21.062;2023-05-22T07:16:56;100755.22;;;29.57;31.63
39341;BME280;25059;52.132;21.062;2023-05-22T07:19:41;100761.66;;;28.83;30.91
39341;BME280;25059;52.132;21.062;2023-05-22T07:22:25;100759.63;;;29.25;29.61
39341;BME280;25059;52.132;21.062;2023-05-22T07:25:10;100750.47;;;29.35;29.47
39341;BME280;25059;52.132;21.062;2023-05-22T07:27:55;100741.28;;;29.68;28.75
39341;BME280;25059;52.132;21.062;2023-05-22T07:30:44;100749.41;;;29.76;28.22
39341;BME280;25059;52.132;21.062;2023-05-22T07:33:28;100756.09;;;30.05;28.57
39341;BME280;25059;52.132;21.062;2023-05-22T07:36:13;100755.63;;;30.32;28.13
39341;BME280;25059;52.132;21.062;2023-05-22T07:38:58;100750.56;;;30.29;27.89
39341;BME280;25059;52.132;21.062;2023-05-22T07:41:46;100751.63;;;30.51;28.14
39341;BME280;25059;52.132;21.062;2023-05-22T07:44:33;100751.28;;;30.23;27.10
39341;BME280;25059;52.132;21.062;2023-05-22T07:47:17;100739.25;;;29.70;27.10
39341;BME280;25059;52.132;21.062;2023-05-22T07:50:02;100736.28;;;30.04;27.18
39341;BME280;25059;52.132;21.062;2023-05-22T07:52:48;100740.88;;;30.58;26.67
39341;BME280;25059;52.132;21.062;2023-05-22T07:55:33;100743.56;;;30.89;26.61
39341;BME280;25059;52.132;21.062;2023-05-22T07:58:17;100746.81;;;31.07;26.72
39341;BME280;25059;52.132;21.062;2023-05-22T08:01:03;100737.97;;;30.67;27.41
39341;BME280;25059;52.132;21.062;2023-05-22T08:03:52;100747.56;;;30.78;26.68
39341;BME280;25059;52.132;21.062;2023-05-22T08:06:36;100735.00;;;31.37;25.75
39341;BME280;25059;52.132;21.062;2023-05-22T08:09:23;100727.25;;;31.11;25.90
39341;BME280;25059;52.132;21.062;2023-05-22T08:12:08;100737.06;;;30.98;25.90
39341;BME280;25059;52.132;21.062;2023-05-22T08:14:52;100746.41;;;29.39;26.14
39341;BME280;25059;52.132;21.062;2023-05-22T08:17:37;100742.75;;;29.87;26.28
39341;BME280;25059;52.132;21.062;2023-05-22T08:24:00;100726.31;;;30.59;25.56
39341;BME280;25059;52.132;21.062;2023-05-22T08:26:45;100721.97;;;30.72;25.60
39341;BME280;25059;52.132;21.062;2023-05-22T08:29:29;100715.09;;;30.84;25.66
39341;BME280;25059;52.132;21.062;2023-05-22T08:32:13;100724.09;;;30.62;26.17
39341;BME280;25059;52.132;21.062;2023-05-22T08:34:59;100721.03;;;30.34;26.32
39341;BME280;25059;52.132;21.062;2023-05-22T08:37:43;100725.47;;;30.27;26.80
39341;BME280;25059;52.132;21.062;2023-05-22T08:40:33;100721.47;;;30.92;25.94
39341;BME280;25059;52.132;21.062;2023-05-22T08:43:19;100712.91;;;31.03;26.15
39341;BME280;25059;52.132;21.062;2023-05-22T08:46:05;100723.66;;;30.73;26.22
39341;BME280;25059;52.132;21.062;2023-05-22T08:48:55;100716.66;;;29.86;26.16
39341;BME280;25059;52.132;21.062;2023-05-22T08:51:41;100729.34;;;29.94;26.64
39341;BME280;25059;52.132;21.062;2023-05-22T08:54:27;100726.38;;;31.34;24.24
39341;BME280;25059;52.132;21.062;2023-05-22T08:57:13;100725.00;;;31.53;24.78
39341;BME280;25059;52.132;21.062;2023-05-22T08:59:58;100712.16;;;32.41;24.15
39341;BME280;25059;52.132;21.062;2023-05-22T09:02:57;100716.81;;;32.26;24.25
39341;BME280;25059;52.132;21.062;2023-05-22T09:05:43;100712.59;;;33.30;23.45
39341;BME280;25059;52.132;21.062;2023-05-22T09:08:28;100709.00;;;33.58;23.23
39341;BME280;25059;52.132;21.062;2023-05-22T09:11:16;100710.44;;;33.82;22.78
39341;BME280;25059;52.132;21.062;2023-05-22T09:14:09;100710.91;;;33.98;23.27
39341;BME280;25059;52.132;21.062;2023-05-22T09:16:54;100703.94;;;33.89;24.24
39341;BME280;25059;52.132;21.062;2023-05-22T09:19:43;100716.41;;;34.79;22.82
39341;BME280;25059;52.132;21.062;2023-05-22T09:22:36;100705.50;;;35.25;21.40
39341;BME280;25059;52.132;21.062;2023-05-22T09:25:21;100701.72;;;35.40;21.24
39341;BME280;25059;52.132;21.062;2023-05-22T09:28:06;100692.47;;;35.08;22.17
39341;BME280;25059;52.132;21.062;2023-05-22T09:30:54;100686.56;;;35.11;22.31
39341;BME280;25059;52.132;21.062;2023-05-22T09:33:38;100678.38;;;35.04;22.23
39341;BME280;25059;52.132;21.062;2023-05-22T09:36:30;100687.22;;;34.06;22.77
39341;BME280;25059;52.132;21.062;2023-05-22T09:39:16;100692.84;;;34.58;22.10
39341;BME280;25059;52.132;21.062;2023-05-22T09:42:01;100689.75;;;34.94;22.36
39341;BME280;25059;52.132;21.062;2023-05-22T09:44:48;100682.66;;;35.84;21.45
39341;BME280;25059;52.132;21.062;2023-05-22T09:47:33;100679.81;;;36.49;20.22
39341;BME280;25059;52.132;21.062;2023-05-22T09:50:19;100679.50;;;35.74;20.99
39341;BME280;25059;52.132;21.062;2023-05-22T09:53:04;100678.34;;;36.46;21.22
39341;BME280;25059;52.132;21.062;2023-05-22T09:55:52;100684.31;;;37.18;19.75
39341;BME280;25059;52.132;21.062;2023-05-22T09:58:40;100682.50;;;36.87;19.92
39341;BME280;25059;52.132;21.062;2023-05-22T10:01:26;100686.97;;;36.81;19.68
39341;BME280;25059;52.132;21.062;2023-05-22T10:04:13;100682.28;;;36.57;19.56
39341;BME280;25059;52.132;21.062;2023-05-22T10:07:01;100687.31;;;36.29;19.88
39341;BME280;25059;52.132;21.062;2023-05-22T10:09:51;100678.56;;;36.45;19.30
39341;BME280;25059;52.132;21.062;2023-05-22T10:12:43;100679.56;;;35.61;19.67
39341;BME280;25059;52.132;21.062;2023-05-22T10:15:28;100675.88;;;35.93;19.86
39341;BME280;25059;52.132;21.062;2023-05-22T10:18:15;100679.50;;;35.81;19.92
39341;BME280;25059;52.132;21.062;2023-05-22T10:21:01;100673.22;;;35.67;18.92
39341;BME280;25059;52.132;21.062;2023-05-22T10:23:50;100678.13;;;36.79;18.02
39341;BME280;25059;52.132;21.062;2023-05-22T10:26:36;100666.81;;;38.10;18.05
39341;BME280;25059;52.132;21.062;2023-05-22T10:29:28;100672.56;;;37.36;17.64
39341;BME280;25059;52.132;21.062;2023-05-22T10:33:02;100671.09;;;35.76;17.88
39341;BME280;25059;52.132;21.062;2023-05-22T10:36:03;100670.78;;;36.42;18.32
39341;BME280;25059;52.132;21.062;2023-05-22T10:45:27;100675.34;;;36.86;17.39
39341;BME280;25059;52.132;21.062;2023-05-22T10:48:16;100675.34;;;36.16;17.39
39341;BME280;25059;52.132;21.062;2023-05-22T10:51:07;100664.97;;;36.25;17.89
39341;BME280;25059;52.132;21.062;2023-05-22T10:54:00;100654.97;;;36.44;16.95
39341;BME280;25059;52.132;21.062;2023-05-22T10:56:48;100661.00;;;38.19;16.79
39341;BME280;25059;52.132;21.062;2023-05-22T10:59:33;100641.56;;;39.44;16.14
39341;BME280;25059;52.132;21.062;2023-05-22T11:02:25;100654.75;;;39.18;15.98
39341;BME280;25059;52.132;21.062;2023-05-22T11:08:10;100645.78;;;39.86;16.33
39341;BME280;25059;52.132;21.062;2023-05-22T11:10:55;100653.81;;;41.50;15.17
39341;BME280;25059;52.132;21.062;2023-05-22T11:13:51;100654.19;;;42.51;14.84
39341;BME280;25059;52.132;21.062;2023-05-22T11:16:37;100640.53;;;43.61;13.87
39341;BME280;25059;52.132;21.062;2023-05-22T11:19:22;100657.69;;;42.15;13.55
39341;BME280;25059;52.132;21.062;2023-05-22T11:22:09;100653.78;;;43.07;13.49
39341;BME280;25059;52.132;21.062;2023-05-22T11:24:54;100634.34;;;45.08;13.32
39341;BME280;25059;52.132;21.062;2023-05-22T11:27:40;100638.09;;;46.12;12.68
39341;BME280;25059;52.132;21.062;2023-05-22T11:30:25;100636.59;;;47.46;12.22
39341;BME280;25059;52.132;21.062;2023-05-22T11:33:12;100631.50;;;47.53;11.33
39341;BME280;25059;52.132;21.062;2023-05-22T11:35:56;100638.91;;;49.71;10.77
39341;BME280;25059;52.132;21.062;2023-05-22T11:38:42;100629.22;;;49.91;10.20
39341;BME280;25059;52.132;21.062;2023-05-22T11:41:31;100623.97;;;48.47;11.12
39341;BME280;25059;52.132;21.062;2023-05-22T11:44:19;100621.81;;;46.34;11.53
39341;BME280;25059;52.132;21.062;2023-05-22T11:47:05;100619.47;;;47.10;11.48
39341;BME280;25059;52.132;21.062;2023-05-22T11:49:50;100621.22;;;47.24;10.76
39341;BME280;25059;52.132;21.062;2023-05-22T11:52:39;100619.22;;;46.77;11.36
39341;BME280;25059;52.132;21.062;2023-05-22T11:55:24;100612.28;;;46.07;11.34
39341;BME280;25059;52.132;21.062;2023-05-22T11:58:09;100617.72;;;44.27;12.23
39341;BME280;25059;52.132;21.062;2023-05-22T12:00:59;100604.88;;;43.90;12.73
39341;BME280;25059;52.132;21.062;2023-05-22T12:03:43;100616.03;;;45.02;11.94
39341;BME280;25059;52.132;21.062;2023-05-22T12:06:28;100612.38;;;46.30;11.78
39341;BME280;25059;52.132;21.062;2023-05-22T12:09:17;100605.09;;;46.40;11.41
39341;BME280;25059;52.132;21.062;2023-05-22T12:12:05;100605.09;;;46.00;11.60
39341;BME280;25059;52.132;21.062;2023-05-22T12:14:52;100609.66;;;44.81;12.30
39341;BME280;25059;52.132;21.062;2023-05-22T12:17:37;100604.94;;;44.82;12.27
39341;BME280;25059;52.132;21.062;2023-05-22T12:20:28;100593.50;;;46.22;11.55
39341;BME280;25059;52.132;21.062;2023-05-22T12:23:21;100602.00;;;45.48;12.59
39341;BME280;25059;52.132;21.062;2023-05-22T12:26:08;100584.38;;;43.86;12.75
39341;BME280;25059;52.132;21.062;2023-05-22T12:28:54;100586.88;;;43.98;12.73
39341;BME280;25059;52.132;21.062;2023-05-22T12:31:38;100590.19;;;43.79;13.03
39341;BME280;25059;52.132;21.062;2023-05-22T12:34:23;100584.06;;;43.72;12.52
39341;BME280;25059;52.132;21.062;2023-05-22T12:40:50;100586.66;;;44.14;12.94
39341;BME280;25059;52.132;21.062;2023-05-22T12:43:35;100582.19;;;42.78;13.12
39341;BME280;25059;52.132;21.062;2023-05-22T12:46:20;100579.66;;;43.14;12.96
39341;BME280;25059;52.132;21.062;2023-05-22T12:49:04;100575.50;;;43.84;12.61
39341;BME280;25059;52.132;21.062;2023-05-22T12:51:49;100575.22;;;43.86;12.90
39341;BME280;25059;52.132;21.062;2023-05-22T12:54:34;100570.84;;;44.05;12.96
39341;BME280;25059;52.132;21.062;2023-05-22T12:57:19;100571.13;;;44.34;12.60
39341;BME280;25059;52.132;21.062;2023-05-22T13:00:04;100557.50;;;43.97;12.49
39341;BME280;25059;52.132;21.062;2023-05-22T13:02:49;100577.19;;;44.82;12.39
39341;BME280;25059;52.132;21.062;2023-05-22T13:05:34;100581.03;;;45.11;12.34
39341;BME280;25059;52.132;21.062;2023-05-22T13:08:20;100572.38;;;45.28;12.16
39341;BME280;25059;52.132;21.062;2023-05-22T13:11:05;100579.06;;;45.81;11.63
39341;BME280;25059;52.132;21.062;2023-05-22T13:13:53;100582.78;;;45.56;12.08
39341;BME280;25059;52.132;21.062;2023-05-22T13:16:38;100575.19;;;45.13;11.92
39341;BME280;25059;52.132;21.062;2023-05-22T13:19:22;100565.59;;;44.44;12.77
39341;BME280;25059;52.132;21.062;2023-05-22T13:22:09;100567.97;;;45.06;11.85
39341;BME280;25059;52.132;21.062;2023-05-22T13:24:54;100565.41;;;45.30;11.63
39341;BME280;25059;52.132;21.062;2023-05-22T13:27:38;100568.06;;;44.30;12.95
39341;BME280;25059;52.132;21.062;2023-05-22T13:30:25;100565.47;;;43.05;13.28
39341;BME280;25059;52.132;21.062;2023-05-22T13:33:10;100560.22;;;42.62;12.82
39341;BME280;25059;52.132;21.062;2023-05-22T13:35:55;100555.72;;;42.50;13.12
39341;BME280;25059;52.132;21.062;2023-05-22T13:38:40;100548.50;;;43.49;13.12
39341;BME280;25059;52.132;21.062;2023-05-22T13:41:25;100541.88;;;43.60;13.08
39341;BME280;25059;52.132;21.062;2023-05-22T13:44:09;100544.72;;;43.65;12.93
39341;BME280;25059;52.132;21.062;2023-05-22T13:46:54;100549.22;;;44.12;12.50
39341;BME280;25059;52.132;21.062;2023-05-22T13:49:38;100538.81;;;46.13;11.99
39341;BME280;25059;52.132;21.062;2023-05-22T13:52:23;100549.28;;;46.84;11.22
39341;BME280;25059;52.132;21.062;2023-05-22T13:55:07;100539.09;;;45.13;11.93
39341;BME280;25059;52.132;21.062;2023-05-22T13:57:52;100549.63;;;45.75;11.17
39341;BME280;25059;52.132;21.062;2023-05-22T14:00:37;100541.91;;;46.93;11.47
39341;BME280;25059;52.132;21.062;2023-05-22T14:03:22;100544.75;;;45.96;11.61
39341;BME280;25059;52.132;21.062;2023-05-22T14:06:06;100540.78;;;46.41;11.08
39341;BME280;25059;52.132;21.062;2023-05-22T14:08:51;100523.16;;;44.23;12.47
39341;BME280;25059;52.132;21.062;2023-05-22T14:11:35;100534.19;;;43.67;12.21
39341;BME280;25059;52.132;21.062;2023-05-22T14:14:20;100526.16;;;43.66;12.14
39341;BME280;25059;52.132;21.062;2023-05-22T14:17:10;100525.75;;;43.32;12.92
39341;BME280;25059;52.132;21.062;2023-05-22T14:19:54;100520.09;;;44.25;12.70
39341;BME280;25059;52.132;21.062;2023-05-22T14:22:39;100512.31;;;44.01;11.88
39341;BME280;25059;52.132;21.062;2023-05-22T14:25:27;100525.03;;;45.48;12.20
39341;BME280;25059;52.132;21.062;2023-05-22T14:28:12;100523.94;;;46.56;11.49
39341;BME280;25059;52.132;21.062;2023-05-22T14:30:58;100522.69;;;46.67;11.71
39341;BME280;25059;52.132;21.062;2023-05-22T14:33:42;100508.97;;;47.24;10.88
39341;BME280;25059;52.132;21.062;2023-05-22T14:36:26;100511.22;;;47.22;10.57
39341;BME280;25059;52.132;21.062;2023-05-22T14:39:14;100512.19;;;46.36;11.35
39341;BME280;25059;52.132;21.062;2023-05-22T14:42:00;100499.06;;;46.07;11.34